sensor_id;sensor_type;location;lat;lon;timestamp;pressure;altitude;pressure_sealevel;temperature;humidity
15674;BME280;7937;48.090;16.212;2022-09-17T00:01:32;96939.00;;;10.94;81.25
15674;BME280;7937;48.090;16.212;2022-09-17T00:04:34;96933.03;;;10.92;80.60
15674;BME280;7937;48.090;16.212;2022-09-17T00:07:36;96916.34;;;10.92;79.91
15674;BME280;7937;48.090;16.212;2022-09-17T00:10:40;96920.66;;;10.93;79.82
15674;BME280;7937;48.090;16.212;2022-09-17T00:13:43;96919.81;;;10.92;80.03
15674;BME280;7937;48.090;16.212;2022-09-17T00:16:47;96921.50;;;10.93;80.00
15674;BME280;7937;48.090;16.212;2022-09-17T00:19:50;96924.25;;;10.92;80.26
15674;BME280;7937;48.090;16.212;2022-09-17T00:22:52;96925.25;;;10.91;79.75
15674;BME280;7937;48.090;16.212;2022-09-17T00:25:55;96927.03;;;10.90;80.88
15674;BME280;7937;48.090;16.212;2022-09-17T00:28:57;96934.81;;;10.92;80.25
15674;BME280;7937;48.090;16.212;2022-09-17T00:32:00;96941.50;;;10.96;79.61
15674;BME280;7937;48.090;16.212;2022-09-17T00:35:02;96938.03;;;10.95;79.18
15674;BME280;7937;48.090;16.212;2022-09-17T00:38:04;96955.53;;;10.96;79.49
15674;BME280;7937;48.090;16.212;2022-09-17T00:41:07;96945.94;;;10.95;79.54
15674;BME280;7937;48.090;16.212;2022-09-17T00:44:37;96951.38;;;10.94;79.73
15674;BME280;7937;48.090;16.212;2022-09-17T00:47:46;96953.31;;;10.92;79.68
15674;BME280;7937;48.090;16.212;2022-09-17T00:50:51;96948.16;;;10.90;79.02
15674;BME280;7937;48.090;16.212;2022-09-17T00:53:55;96943.59;;;10.92;79.29
15674;BME280;7937;48.090;16.212;2022-09-17T00:56:57;96944.81;;;10.88;79.67
15674;BME280;7937;48.090;16.212;2022-09-17T01:00:00;96941.38;;;10.88;80.14
15674;BME280;7937;48.090;16.212;2022-09-17T01:03:02;96948.31;;;10.89;79.91
15674;BME280;7937;48.090;16.212;2022-09-17T01:16:16;96946.66;;;10.88;80.77
15674;BME280;7937;48.090;16.212;2022-09-17T01:35:47;96924.72;;;10.87;78.92
15674;BME280;7937;48.090;16.212;2022-09-17T01:39:06;96937.22;;;10.85;79.57
15674;BME280;7937;48.090;16.212;2022-09-17T01:42:26;96931.53;;;10.80;80.05
15674;BME280;7937;48.090;16.212;2022-09-17T01:46:00;96927.38;;;10.78;80.90
15674;BME280;7937;48.090;16.212;2022-09-17T01:49:02;96929.34;;;10.66;81.77
15674;BME280;7937;48.090;16.212;2022-09-17T01:52:08;96926.28;;;10.61;82.69
15674;BME280;7937;48.090;16.212;2022-09-17T01:55:14;96934.78;;;10.55;82.82
15674;BME280;7937;48.090;16.212;2022-09-17T01:58:22;96921.59;;;10.55;82.02
15674;BME280;7937;48.090;16.212;2022-09-17T02:01:28;96914.38;;;10.57;81.91
15674;BME280;7937;48.090;16.212;2022-09-17T02:05:06;96912.97;;;10.53;81.44
15674;BME280;7937;48.090;16.212;2022-09-17T02:08:13;96916.19;;;10.56;81.81
15674;BME280;7937;48.090;16.212;2022-09-17T02:11:18;96910.44;;;10.61;80.98
15674;BME280;7937;48.090;16.212;2022-09-17T02:14:26;96913.66;;;10.64;81.17
15674;BME280;7937;48.090;16.212;2022-09-17T02:17:41;96909.34;;;10.63;81.18
15674;BME280;7937;48.090;16.212;2022-09-17T02:20:51;96907.69;;;10.62;81.51
15674;BME280;7937;48.090;16.212;2022-09-17T02:24:11;96897.97;;;10.63;81.78
15674;BME280;7937;48.090;16.212;2022-09-17T02:30:26;96893.38;;;10.65;80.47
15674;BME280;7937;48.090;16.212;2022-09-17T02:33:29;96910.44;;;10.70;80.23
15674;BME280;7937;48.090;16.212;2022-09-17T02:36:34;96906.81;;;10.71;80.91
15674;BME280;7937;48.090;16.212;2022-09-17T02:39:36;96901.53;;;10.71;80.72
15674;BME280;7937;48.090;16.212;2022-09-17T02:43:12;96889.88;;;10.74;80.39
15674;BME280;7937;48.090;16.212;2022-09-17T02:53:14;96866.22;;;10.82;79.03
15674;BME280;7937;48.090;16.212;2022-09-17T02:56:42;96867.91;;;10.83;78.65
15674;BME280;7937;48.090;16.212;2022-09-17T03:00:17;96900.13;;;10.87;77.51
15674;BME280;7937;48.090;16.212;2022-09-17T03:03:34;96910.38;;;10.90;78.15
15674;BME280;7937;48.090;16.212;2022-09-17T03:06:39;96903.28;;;10.90;78.04
15674;BME280;7937;48.090;16.212;2022-09-17T03:09:41;96920.28;;;10.88;79.29
15674;BME280;7937;48.090;16.212;2022-09-17T03:12:44;96920.00;;;10.81;79.13
15674;BME280;7937;48.090;16.212;2022-09-17T03:15:46;96907.75;;;10.80;78.15
15674;BME280;7937;48.090;16.212;2022-09-17T03:18:49;96904.16;;;10.81;78.04
15674;BME280;7937;48.090;16.212;2022-09-17T03:21:51;96910.13;;;10.83;78.20
15674;BME280;7937;48.090;16.212;2022-09-17T03:24:53;96905.00;;;10.82;78.23
15674;BME280;7937;48.090;16.212;2022-09-17T03:27:55;96895.41;;;10.81;78.43
15674;BME280;7937;48.090;16.212;2022-09-17T03:30:57;96888.59;;;10.78;78.61
15674;BME280;7937;48.090;16.212;2022-09-17T03:33:59;96891.22;;;10.78;78.57
15674;BME280;7937;48.090;16.212;2022-09-17T03:37:02;96887.63;;;10.79;78.82
15674;BME280;7937;48.090;16.212;2022-09-17T03:40:04;96889.75;;;10.76;79.46
15674;BME280;7937;48.090;16.212;2022-09-17T03:43:07;96895.16;;;10.74;78.92
15674;BME280;7937;48.090;16.212;2022-09-17T03:46:09;96892.38;;;10.76;79.14
15674;BME280;7937;48.090;16.212;2022-09-17T03:49:12;96881.69;;;10.77;79.28
15674;BME280;7937;48.090;16.212;2022-09-17T03:52:14;96872.09;;;10.76;79.03
15674;BME280;7937;48.090;16.212;2022-09-17T03:55:16;96872.22;;;10.75;79.24
15674;BME280;7937;48.090;16.212;2022-09-17T03:58:18;96873.34;;;10.72;79.80
15674;BME280;7937;48.090;16.212;2022-09-17T04:01:20;96870.00;;;10.70;79.86
15674;BME280;7937;48.090;16.212;2022-09-17T04:04:22;96873.47;;;10.70;79.94
15674;BME280;7937;48.090;16.212;2022-09-17T04:07:24;96877.25;;;10.68;80.13
15674;BME280;7937;48.090;16.212;2022-09-17T04:10:26;96868.50;;;10.67;80.32
15674;BME280;7937;48.090;16.212;2022-09-17T04:13:30;96884.50;;;10.66;80.38
15674;BME280;7937;48.090;16.212;2022-09-17T04:16:32;96891.72;;;10.64;80.65
15674;BME280;7937;48.090;16.212;2022-09-17T04:19:34;96894.63;;;10.61;80.98
15674;BME280;7937;48.090;16.212;2022-09-17T04:22:36;96891.28;;;10.59;81.19
15674;BME280;7937;48.090;16.212;2022-09-17T04:25:38;96915.19;;;10.57;81.59
15674;BME280;7937;48.090;16.212;2022-09-17T04:28:40;96923.38;;;10.54;81.84
15674;BME280;7937;48.090;16.212;2022-09-17T04:31:42;96906.59;;;10.55;81.99
15674;BME280;7937;48.090;16.212;2022-09-17T04:34:44;96900.47;;;10.55;81.99
15674;BME280;7937;48.090;16.212;2022-09-17T04:37:56;96894.22;;;10.56;82.52
15674;BME280;7937;48.090;16.212;2022-09-17T04:40:59;96892.69;;;10.53;82.74
15674;BME280;7937;48.090;16.212;2022-09-17T04:44:01;96888.25;;;10.54;82.74
15674;BME280;7937;48.090;16.212;2022-09-17T04:47:03;96874.09;;;10.55;83.51
15674;BME280;7937;48.090;16.212;2022-09-17T04:50:06;96872.16;;;10.57;83.21
15674;BME280;7937;48.090;16.212;2022-09-17T04:53:08;96862.25;;;10.59;83.00
15674;BME280;7937;48.090;16.212;2022-09-17T04:56:10;96867.53;;;10.59;83.02
15674;BME280;7937;48.090;16.212;2022-09-17T04:59:12;96862.13;;;10.60;82.81
15674;BME280;7937;48.090;16.212;2022-09-17T05:02:14;96863.78;;;10.61;82.50
15674;BME280;7937;48.090;16.212;2022-09-17T05:05:17;96847.00;;;10.62;82.26
15674;BME280;7937;48.090;16.212;2022-09-17T05:08:19;96857.41;;;10.64;82.65
15674;BME280;7937;48.090;16.212;2022-09-17T05:11:23;96849.22;;;10.67;82.80
15674;BME280;7937;48.090;16.212;2022-09-17T05:14:25;96853.53;;;10.68;82.52
15674;BME280;7937;48.090;16.212;2022-09-17T05:17:27;96859.19;;;10.73;82.27
15674;BME280;7937;48.090;16.212;2022-09-17T05:20:29;96854.59;;;10.75;82.06
15674;BME280;7937;48.090;16.212;2022-09-17T05:23:31;96857.94;;;10.77;81.98
15674;BME280;7937;48.090;16.212;2022-09-17T05:26:33;96887.22;;;10.74;81.62
15674;BME280;7937;48.090;16.212;2022-09-17T05:29:36;96882.94;;;10.73;81.17
15674;BME280;7937;48.090;16.212;2022-09-17T05:32:38;96900.16;;;10.77;80.88
15674;BME280;7937;48.090;16.212;2022-09-17T05:35:42;96897.34;;;10.79;80.06
15674;BME280;7937;48.090;16.212;2022-09-17T05:38:45;96899.72;;;10.82;79.95
15674;BME280;7937;48.090;16.212;2022-09-17T05:41:47;96910.81;;;10.85;80.33
15674;BME280;7937;48.090;16.212;2022-09-17T05:44:49;96900.97;;;10.87;80.54
15674;BME280;7937;48.090;16.212;2022-09-17T05:47:55;96895.38;;;10.90;79.69
15674;BME280;7937;48.090;16.212;2022-09-17T05:50:58;96904.53;;;10.96;79.77
15674;BME280;7937;48.090;16.212;2022-09-17T05:54:00;96919.94;;;11.00;79.74
15674;BME280;7937;48.090;16.212;2022-09-17T05:57:02;96904.50;;;11.05;79.63
15674;BME280;7937;48.090;16.212;2022-09-17T06:00:05;96908.50;;;11.09;79.60
15674;BME280;7937;48.090;16.212;2022-09-17T06:03:14;96886.13;;;11.14;80.03
15674;BME280;7937;48.090;16.212;2022-09-17T06:06:16;96877.72;;;11.18;80.73
15674;BME280;7937;48.090;16.212;2022-09-17T06:09:18;96852.72;;;11.22;80.24
15674;BME280;7937;48.090;16.212;2022-09-17T06:12:21;96847.41;;;11.22;79.98
15674;BME280;7937;48.090;16.212;2022-09-17T06:15:25;96831.97;;;11.27;79.74
15674;BME280;7937;48.090;16.212;2022-09-17T06:18:29;96829.72;;;11.32;79.09
15674;BME280;7937;48.090;16.212;2022-09-17T06:21:32;96816.91;;;11.37;78.76
15674;BME280;7937;48.090;16.212;2022-09-17T06:24:34;96837.56;;;11.42;78.68
15674;BME280;7937;48.090;16.212;2022-09-17T06:27:36;96850.34;;;11.46;78.38
15674;BME280;7937;48.090;16.212;2022-09-17T06:30:38;96864.41;;;11.47;77.12
15674;BME280;7937;48.090;16.212;2022-09-17T06:33:40;96845.34;;;11.43;76.47
15674;BME280;7937;48.090;16.212;2022-09-17T06:36:42;96850.88;;;11.50;76.68
15674;BME280;7937;48.090;16.212;2022-09-17T06:39:44;96847.31;;;11.59;76.92
15674;BME280;7937;48.090;16.212;2022-09-17T06:42:46;96873.41;;;11.72;77.19
15674;BME280;7937;48.090;16.212;2022-09-17T06:45:56;96866.28;;;11.72;76.82
15674;BME280;7937;48.090;16.212;2022-09-17T06:48:59;96871.22;;;11.67;75.58
15674;BME280;7937;48.090;16.212;2022-09-17T06:52:01;96875.19;;;11.71;75.66
15674;BME280;7937;48.090;16.212;2022-09-17T06:55:05;96866.97;;;11.74;75.78
15674;BME280;7937;48.090;16.212;2022-09-17T06:58:07;96867.53;;;11.78;75.46
15674;BME280;7937;48.090;16.212;2022-09-17T07:01:12;96858.72;;;11.87;75.06
15674;BME280;7937;48.090;16.212;2022-09-17T08:03:52;96954.75;;;12.05;71.11
15674;BME280;7937;48.090;16.212;2022-09-17T08:06:55;96954.81;;;12.13;71.41
15674;BME280;7937;48.090;16.212;2022-09-17T08:09:57;96961.84;;;12.23;71.12
15674;BME280;7937;48.090;16.212;2022-09-17T08:12:59;96977.72;;;12.40;70.09
15674;BME280;7937;48.090;16.212;2022-09-17T08:16:05;96980.69;;;12.55;69.60
15674;BME280;7937;48.090;16.212;2022-09-17T08:19:08;96985.50;;;12.42;70.32
15674;BME280;7937;48.090;16.212;2022-09-17T08:22:11;96991.19;;;12.47;69.71
15674;BME280;7937;48.090;16.212;2022-09-17T08:25:13;96990.78;;;12.60;69.16
15674;BME280;7937;48.090;16.212;2022-09-17T08:28:16;96989.13;;;12.58;67.84
15674;BME280;7937;48.090;16.212;2022-09-17T08:31:18;96996.41;;;12.56;68.47
15674;BME280;7937;48.090;16.212;2022-09-17T08:34:20;96994.66;;;12.65;68.18
15674;BME280;7937;48.090;16.212;2022-09-17T08:37:22;97017.09;;;12.79;67.52
15674;BME280;7937;48.090;16.212;2022-09-17T08:40:25;97021.06;;;12.75;65.73
15674;BME280;7937;48.090;16.212;2022-09-17T08:43:30;97026.41;;;12.83;66.60
15674;BME280;7937;48.090;16.212;2022-09-17T08:46:47;97018.22;;;12.94;67.14
15674;BME280;7937;48.090;16.212;2022-09-17T08:50:06;97001.75;;;12.82;66.31
15674;BME280;7937;48.090;16.212;2022-09-17T08:53:33;97007.41;;;12.87;66.34
15674;BME280;7937;48.090;16.212;2022-09-17T08:56:41;97007.34;;;12.79;65.31
15674;BME280;7937;48.090;16.212;2022-09-17T09:00:03;97005.00;;;12.76;65.66
15674;BME280;7937;48.090;16.212;2022-09-17T09:06:51;97006.72;;;12.68;64.72
15674;BME280;7937;48.090;16.212;2022-09-17T09:10:06;97027.03;;;12.77;64.69
15674;BME280;7937;48.090;16.212;2022-09-17T09:13:10;97014.84;;;12.84;64.13
15674;BME280;7937;48.090;16.212;2022-09-17T09:16:22;97014.28;;;12.80;63.64
15674;BME280;7937;48.090;16.212;2022-09-17T09:19:29;97030.94;;;12.90;64.01
15674;BME280;7937;48.090;16.212;2022-09-17T09:22:53;97048.59;;;12.64;63.08
15674;BME280;7937;48.090;16.212;2022-09-17T09:26:17;97041.84;;;12.52;63.79
15674;BME280;7937;48.090;16.212;2022-09-17T09:33:14;97037.25;;;12.36;65.11
15674;BME280;7937;48.090;16.212;2022-09-17T09:36:18;97037.47;;;12.43;65.03
15674;BME280;7937;48.090;16.212;2022-09-17T09:39:25;97047.28;;;12.50;65.42
15674;BME280;7937;48.090;16.212;2022-09-17T09:42:36;97032.09;;;12.35;65.09
15674;BME280;7937;48.090;16.212;2022-09-17T09:52:47;97010.84;;;12.44;64.30
15674;BME280;7937;48.090;16.212;2022-09-17T09:59:17;97002.50;;;12.39;63.75
15674;BME280;7937;48.090;16.212;2022-09-17T10:02:19;97003.81;;;12.53;64.16
15674;BME280;7937;48.090;16.212;2022-09-17T10:05:22;97005.91;;;12.49;64.55
15674;BME280;7937;48.090;16.212;2022-09-17T10:08:25;97001.31;;;12.51;64.84
15674;BME280;7937;48.090;16.212;2022-09-17T10:11:30;96998.13;;;12.48;63.64
15674;BME280;7937;48.090;16.212;2022-09-17T10:14:40;96995.72;;;12.37;64.59
15674;BME280;7937;48.090;16.212;2022-09-17T10:17:42;96987.47;;;12.40;64.26
15674;BME280;7937;48.090;16.212;2022-09-17T10:21:03;96984.66;;;12.59;63.61
15674;BME280;7937;48.090;16.212;2022-09-17T10:24:26;96984.28;;;12.72;63.26
15674;BME280;7937;48.090;16.212;2022-09-17T10:27:29;96983.28;;;12.73;63.06
15674;BME280;7937;48.090;16.212;2022-09-17T10:30:32;96976.63;;;12.86;63.96
15674;BME280;7937;48.090;16.212;2022-09-17T10:34:01;96972.81;;;12.89;62.69
15674;BME280;7937;48.090;16.212;2022-09-17T10:37:04;96970.91;;;12.99;63.55
15674;BME280;7937;48.090;16.212;2022-09-17T10:43:21;96953.03;;;13.01;62.67
15674;BME280;7937;48.090;16.212;2022-09-17T10:46:29;96953.63;;;13.13;63.62
15674;BME280;7937;48.090;16.212;2022-09-17T10:49:38;96950.53;;;13.17;61.62
15674;BME280;7937;48.090;16.212;2022-09-17T10:52:47;96948.59;;;13.27;61.29
15674;BME280;7937;48.090;16.212;2022-09-17T10:56:11;96938.47;;;13.57;62.26
15674;BME280;7937;48.090;16.212;2022-09-17T11:00:02;96917.69;;;14.02;59.82
15674;BME280;7937;48.090;16.212;2022-09-17T11:03:21;96913.91;;;14.29;58.36
15674;BME280;7937;48.090;16.212;2022-09-17T11:07:05;96918.03;;;14.08;57.33
15674;BME280;7937;48.090;16.212;2022-09-17T11:13:51;96931.88;;;14.60;57.25
15674;BME280;7937;48.090;16.212;2022-09-17T11:30:52;96929.53;;;14.40;55.97
15674;BME280;7937;48.090;16.212;2022-09-17T11:37:22;96916.28;;;14.57;56.77
15674;BME280;7937;48.090;16.212;2022-09-17T11:43:43;96914.72;;;15.03;55.36
15674;BME280;7937;48.090;16.212;2022-09-17T11:46:59;96942.28;;;15.10;54.84
15674;BME280;7937;48.090;16.212;2022-09-17T11:54:03;96931.22;;;14.42;56.31
15674;BME280;7937;48.090;16.212;2022-09-17T11:57:46;96925.88;;;14.17;57.38
15674;BME280;7937;48.090;16.212;2022-09-17T12:00:53;96905.41;;;13.85;58.45
15674;BME280;7937;48.090;16.212;2022-09-17T12:04:04;96905.88;;;13.81;58.17
15674;BME280;7937;48.090;16.212;2022-09-17T12:11:33;96887.41;;;13.47;59.27
15674;BME280;7937;48.090;16.212;2022-09-17T12:14:22;96875.63;;;13.49;58.73
15674;BME280;7937;48.090;16.212;2022-09-17T12:17:32;96871.00;;;13.51;59.13
15674;BME280;7937;48.090;16.212;2022-09-17T12:20:39;96860.56;;;13.58;58.63
15674;BME280;7937;48.090;16.212;2022-09-17T12:23:48;96835.56;;;13.60;59.41
15674;BME280;7937;48.090;16.212;2022-09-17T12:30:13;96846.22;;;13.77;58.11
15674;BME280;7937;48.090;16.212;2022-09-17T12:33:33;96836.53;;;13.51;59.70
15674;BME280;7937;48.090;16.212;2022-09-17T12:36:44;96841.38;;;13.56;59.97
15674;BME280;7937;48.090;16.212;2022-09-17T12:40:14;96853.81;;;13.72;59.72
15674;BME280;7937;48.090;16.212;2022-09-17T12:47:13;96841.69;;;13.61;60.63
15674;BME280;7937;48.090;16.212;2022-09-17T12:53:36;96848.50;;;13.72;60.67
15674;BME280;7937;48.090;16.212;2022-09-17T13:00:15;96856.19;;;13.33;60.45
15674;BME280;7937;48.090;16.212;2022-09-17T13:03:34;96862.47;;;13.23;60.62
15674;BME280;7937;48.090;16.212;2022-09-17T13:07:07;96870.63;;;13.04;60.86
15674;BME280;7937;48.090;16.212;2022-09-17T13:10:56;96861.16;;;13.02;61.18
15674;BME280;7937;48.090;16.212;2022-09-17T13:17:53;96873.81;;;12.82;60.39
15674;BME280;7937;48.090;16.212;2022-09-17T13:21:32;96849.41;;;12.70;62.16
15674;BME280;7937;48.090;16.212;2022-09-17T13:24:41;96828.88;;;12.64;61.58
15674;BME280;7937;48.090;16.212;2022-09-17T13:27:49;96846.97;;;12.51;62.51
15674;BME280;7937;48.090;16.212;2022-09-17T13:30:58;96853.09;;;12.51;61.75
15674;BME280;7937;48.090;16.212;2022-09-17T13:34:01;96851.81;;;12.55;62.03
15674;BME280;7937;48.090;16.212;2022-09-17T13:37:16;96858.09;;;12.54;61.64
15674;BME280;7937;48.090;16.212;2022-09-17T13:40:29;96867.69;;;12.55;62.26
15674;BME280;7937;48.090;16.212;2022-09-17T13:43:32;96862.75;;;12.61;62.69
15674;BME280;7937;48.090;16.212;2022-09-17T13:46:35;96870.69;;;12.61;62.53
15674;BME280;7937;48.090;16.212;2022-09-17T13:49:48;96882.09;;;12.61;63.25
15674;BME280;7937;48.090;16.212;2022-09-17T13:52:53;96867.00;;;12.53;63.20
15674;BME280;7937;48.090;16.212;2022-09-17T13:55:57;96868.00;;;12.52;62.65
15674;BME280;7937;48.090;16.212;2022-09-17T13:59:08;96873.09;;;12.46;62.38
15674;BME280;7937;48.090;16.212;2022-09-17T14:02:27;96880.63;;;12.41;63.42
15674;BME280;7937;48.090;16.212;2022-09-17T14:05:34;96885.09;;;12.40;63.87
15674;BME280;7937;48.090;16.212;2022-09-17T14:11:44;96887.09;;;12.20;63.35
15674;BME280;7937;48.090;16.212;2022-09-17T14:14:49;96880.38;;;12.08;63.17
15674;BME280;7937;48.090;16.212;2022-09-17T14:17:52;96885.44;;;12.02;63.75
15674;BME280;7937;48.090;16.212;2022-09-17T14:21:05;96900.63;;;12.00;64.07
15674;BME280;7937;48.090;16.212;2022-09-17T14:24:23;96905.84;;;11.92;63.38
15674;BME280;7937;48.090;16.212;2022-09-17T14:27:43;96904.78;;;11.85;63.09
15674;BME280;7937;48.090;16.212;2022-09-17T14:30:47;96915.72;;;11.90;63.61
15674;BME280;7937;48.090;16.212;2022-09-17T14:33:49;96913.47;;;11.95;63.99
15674;BME280;7937;48.090;16.212;2022-09-17T14:36:52;96917.09;;;11.94;64.90
15674;BME280;7937;48.090;16.212;2022-09-17T14:39:54;96896.56;;;11.88;65.10
15674;BME280;7937;48.090;16.212;2022-09-17T14:42:57;96900.19;;;11.87;64.95
15674;BME280;7937;48.090;16.212;2022-09-17T14:46:00;96895.81;;;11.77;64.21
15674;BME280;7937;48.090;16.212;2022-09-17T14:49:24;96892.31;;;11.77;64.56
15674;BME280;7937;48.090;16.212;2022-09-17T14:52:30;96886.88;;;11.78;64.75
15674;BME280;7937;48.090;16.212;2022-09-17T14:55:32;96887.56;;;11.80;65.26
15674;BME280;7937;48.090;16.212;2022-09-17T14:58:36;96879.25;;;11.75;65.21
15674;BME280;7937;48.090;16.212;2022-09-17T15:01:53;96877.44;;;11.76;65.09
15674;BME280;7937;48.090;16.212;2022-09-17T15:04:56;96873.13;;;11.75;65.49
15674;BME280;7937;48.090;16.212;2022-09-17T15:08:16;96880.19;;;11.74;64.66
15674;BME280;7937;48.090;16.212;2022-09-17T15:11:19;96863.44;;;11.66;65.02
15674;BME280;7937;48.090;16.212;2022-09-17T15:14:26;96871.88;;;11.69;64.77
15674;BME280;7937;48.090;16.212;2022-09-17T15:17:29;96861.91;;;11.63;65.54
15674;BME280;7937;48.090;16.212;2022-09-17T15:20:31;96857.47;;;11.64;65.48
15674;BME280;7937;48.090;16.212;2022-09-17T15:23:34;96854.81;;;11.64;66.53
15674;BME280;7937;48.090;16.212;2022-09-17T15:26:40;96846.97;;;11.54;66.57
15674;BME280;7937;48.090;16.212;2022-09-17T15:29:45;96853.44;;;11.60;67.04
15674;BME280;7937;48.090;16.212;2022-09-17T15:32:55;96857.47;;;11.64;66.85
15674;BME280;7937;48.090;16.212;2022-09-17T15:36:21;96858.84;;;11.68;66.71
15674;BME280;7937;48.090;16.212;2022-09-17T15:39:29;96857.47;;;11.64;67.10
15674;BME280;7937;48.090;16.212;2022-09-17T15:42:32;96861.16;;;11.53;66.90
15674;BME280;7937;48.090;16.212;2022-09-17T15:45:34;96856.84;;;11.52;67.67
15674;BME280;7937;48.090;16.212;2022-09-17T15:48:39;96861.28;;;11.52;67.97
15674;BME280;7937;48.090;16.212;2022-09-17T15:51:42;96858.09;;;11.48;67.98
15674;BME280;7937;48.090;16.212;2022-09-17T15:54:44;96864.13;;;11.40;68.04
15674;BME280;7937;48.090;16.212;2022-09-17T15:57:46;96863.72;;;11.45;67.92
15674;BME280;7937;48.090;16.212;2022-09-17T16:04:29;96877.34;;;11.40;68.87
15674;BME280;7937;48.090;16.212;2022-09-17T16:07:31;96875.59;;;11.31;68.52
15674;BME280;7937;48.090;16.212;2022-09-17T16:10:33;96888.44;;;11.26;68.38
15674;BME280;7937;48.090;16.212;2022-09-17T16:13:35;96893.19;;;11.13;69.16
15674;BME280;7937;48.090;16.212;2022-09-17T16:16:37;96896.81;;;11.12;69.24
15674;BME280;7937;48.090;16.212;2022-09-17T16:19:40;96889.34;;;11.07;70.06
15674;BME280;7937;48.090;16.212;2022-09-17T16:22:43;96907.28;;;11.04;70.28
15674;BME280;7937;48.090;16.212;2022-09-17T16:25:46;96894.91;;;11.04;71.34
15674;BME280;7937;48.090;16.212;2022-09-17T16:28:51;96896.06;;;10.92;72.15
15674;BME280;7937;48.090;16.212;2022-09-17T16:31:54;96904.28;;;10.80;72.78
15674;BME280;7937;48.090;16.212;2022-09-17T16:34:56;96903.06;;;10.74;73.75
15674;BME280;7937;48.090;16.212;2022-09-17T16:37:58;96899.88;;;10.70;74.25
15674;BME280;7937;48.090;16.212;2022-09-17T16:41:03;96904.63;;;10.67;75.25
15674;BME280;7937;48.090;16.212;2022-09-17T16:44:05;96909.63;;;10.60;75.64
15674;BME280;7937;48.090;16.212;2022-09-17T16:47:07;96921.31;;;10.58;76.59
15674;BME280;7937;48.090;16.212;2022-09-17T16:50:12;96911.03;;;10.55;76.28
15674;BME280;7937;48.090;16.212;2022-09-17T16:53:14;96911.06;;;10.45;77.04
15674;BME280;7937;48.090;16.212;2022-09-17T16:56:16;96913.97;;;10.42;77.14
15674;BME280;7937;48.090;16.212;2022-09-17T16:59:18;96912.31;;;10.31;78.19
15674;BME280;7937;48.090;16.212;2022-09-17T17:02:20;96911.91;;;10.26;78.22
15674;BME280;7937;48.090;16.212;2022-09-17T17:05:24;96920.09;;;10.23;78.19
15674;BME280;7937;48.090;16.212;2022-09-17T17:08:26;96912.28;;;10.12;78.81
15674;BME280;7937;48.090;16.212;2022-09-17T17:11:31;96915.19;;;10.09;79.75
15674;BME280;7937;48.090;16.212;2022-09-17T17:14:33;96921.16;;;10.02;79.89
15674;BME280;7937;48.090;16.212;2022-09-17T17:17:35;96913.25;;;10.02;80.12
15674;BME280;7937;48.090;16.212;2022-09-17T17:20:39;96921.72;;;9.95;81.02
15674;BME280;7937;48.090;16.212;2022-09-17T17:23:41;96911.56;;;9.81;80.36
15674;BME280;7937;48.090;16.212;2022-09-17T17:26:47;96910.34;;;9.76;80.59
15674;BME280;7937;48.090;16.212;2022-09-17T17:29:49;96920.72;;;9.68;81.75
15674;BME280;7937;48.090;16.212;2022-09-17T17:32:52;96918.34;;;9.65;82.10
15674;BME280;7937;48.090;16.212;2022-09-17T17:35:54;96920.28;;;9.62;82.02
15674;BME280;7937;48.090;16.212;2022-09-17T17:39:04;96926.63;;;9.50;82.72
15674;BME280;7937;48.090;16.212;2022-09-17T17:42:06;96925.25;;;9.46;82.11
15674;BME280;7937;48.090;16.212;2022-09-17T17:45:09;96936.47;;;9.48;82.52
15674;BME280;7937;48.090;16.212;2022-09-17T17:48:11;96931.75;;;9.42;82.94
15674;BME280;7937;48.090;16.212;2022-09-17T17:51:13;96914.81;;;9.35;82.65
15674;BME280;7937;48.090;16.212;2022-09-17T17:54:16;96929.75;;;9.25;82.49
15674;BME280;7937;48.090;16.212;2022-09-17T17:57:18;96938.75;;;9.22;82.45
15674;BME280;7937;48.090;16.212;2022-09-17T18:00:20;96942.47;;;9.20;83.05
15674;BME280;7937;48.090;16.212;2022-09-17T18:03:23;96957.59;;;9.18;82.40
15674;BME280;7937;48.090;16.212;2022-09-17T18:06:28;96964.06;;;9.14;81.21
15674;BME280;7937;48.090;16.212;2022-09-17T18:09:31;96963.38;;;9.12;80.33
15674;BME280;7937;48.090;16.212;2022-09-17T18:12:33;96971.97;;;9.14;81.08
15674;BME280;7937;48.090;16.212;2022-09-17T18:15:35;96968.50;;;9.13;80.92
15674;BME280;7937;48.090;16.212;2022-09-17T18:18:42;96991.59;;;9.10;81.07
15674;BME280;7937;48.090;16.212;2022-09-17T18:21:45;96973.47;;;9.07;81.67
15674;BME280;7937;48.090;16.212;2022-09-17T18:24:47;96978.59;;;9.08;81.71
15674;BME280;7937;48.090;16.212;2022-09-17T18:27:49;96999.66;;;9.08;82.31
15674;BME280;7937;48.090;16.212;2022-09-17T18:30:51;96984.84;;;9.07;82.64
15674;BME280;7937;48.090;16.212;2022-09-17T18:33:59;96986.75;;;9.05;82.69
15674;BME280;7937;48.090;16.212;2022-09-17T18:37:02;96976.47;;;9.02;83.00
15674;BME280;7937;48.090;16.212;2022-09-17T18:40:05;96989.06;;;8.99;82.43
15674;BME280;7937;48.090;16.212;2022-09-17T18:43:07;96992.28;;;9.02;82.01
15674;BME280;7937;48.090;16.212;2022-09-17T18:46:09;96988.81;;;9.02;82.25
15674;BME280;7937;48.090;16.212;2022-09-17T18:49:12;97000.03;;;9.04;82.11
15674;BME280;7937;48.090;16.212;2022-09-17T18:52:14;96997.03;;;9.08;81.53
15674;BME280;7937;48.090;16.212;2022-09-17T18:55:16;96995.91;;;9.11;82.53
15674;BME280;7937;48.090;16.212;2022-09-17T18:58:18;96988.72;;;9.13;82.12
15674;BME280;7937;48.090;16.212;2022-09-17T19:01:22;97005.09;;;9.16;81.40
15674;BME280;7937;48.090;16.212;2022-09-17T19:04:25;96989.84;;;9.20;82.02
15674;BME280;7937;48.090;16.212;2022-09-17T19:07:29;96978.13;;;9.24;82.31
15674;BME280;7937;48.090;16.212;2022-09-17T19:10:31;96999.19;;;9.24;82.08
15674;BME280;7937;48.090;16.212;2022-09-17T19:13:35;96981.31;;;9.28;82.20
15674;BME280;7937;48.090;16.212;2022-09-17T19:16:38;96993.50;;;9.29;82.03
15674;BME280;7937;48.090;16.212;2022-09-17T19:19:40;96992.69;;;9.28;81.21
15674;BME280;7937;48.090;16.212;2022-09-17T19:22:42;96992.53;;;9.30;82.33
15674;BME280;7937;48.090;16.212;2022-09-17T19:25:44;96992.53;;;9.30;81.87